KBYI/BYI METAR and TAF weather

Enter ICAO airport designator
Station Type Date Time Source
KBYI METAR 2020/10/29 15:53 UTC NOAA

KBYI 291553Z AUTO 00000KT 10SM CLR 04/M04 A3029 RMK AO2 SLP262 T00391039


Station Type Date Time Source
KBYI Decoded METAR 2020/10/29 15:53 UTC NOAA

BURLEY MUNICIPAL AIRPORT, ID, United States (KBYI) 42-33N 113-46W 1264M
Oct 29, 2020 - 11:53 AM EDT / 2020.10.29 1553 UTC
Wind: Calm:0
Visibility: 10 mile(s):0
Sky conditions: clear
Temperature: 39.0 F (3.9 C)
Dew Point: 25.0 F (-3.9 C)
Relative Humidity: 56%
Pressure (altimeter): 30.29 in. Hg (1025 hPa)
ob: KBYI 291553Z AUTO 00000KT 10SM CLR 04/M04 A3029 RMK AO2 SLP262 T00391039
cycle: 16

Station Type Date Time Source
KBYI TAF 2020/10/29 12:22 UTC NOAA

TAF KBYI 291120Z 2912/3012 VRB04KT P6SM SKC

Example: see airport list